IN-0029 weather

Lunglei Helipad
Mizoram, India

Public forecast

Using degrees Celsius for public forecast. Weather courtesy of forecast.io.

Closest aviation weather report (METAR) to Lunglei Helipad

Closest report is Lengpui Airport, 58.9 nm (109.1 km) N. Retrieved 2020/05/30 06:00 UTC (25 minutes ago):

VELP 300600Z 15004KT 1500 -TSRA SCT006 SCT018 FEW030CB OVC090 24/24 Q1011 NOSIG

Closest aviation forecast (TAF) to Lunglei Helipad

Closest forecast is Shah Amanat International Airport, 64.5 nm (119.4 km) SW. Retrieved 2020/05/30 06:48 UTC (0 seconds ago):

TAF TAF VGEG 300500Z 3006/3112 25010KT 5000 HZ SCT016 SCT110 TEMPO 3009/3013 26020G30KT 2000 RA/TSRA SCT007 FEW025CB OVC090 BECMG 3014/3016 27007KT 4000 HZ SCT016 SCT110 BECMG 3021/3023 10005KT 3200 HZ SCT016 BECMG 3105/3107 24012KT 4500 HZ SCT016